createdAt,value
2023-03-05T00:00:11.534Z,99811.84
2023-03-05T00:02:37.766Z,99802.94
2023-03-05T00:05:04.060Z,99790.47
2023-03-05T00:07:30.258Z,99779.38
2023-03-05T00:09:58.607Z,99785.91
2023-03-05T00:12:24.808Z,99816.66
2023-03-05T00:14:51.023Z,99847.09
2023-03-05T00:17:17.298Z,99868.66
2023-03-05T00:19:43.501Z,99861.94
2023-03-05T00:22:09.711Z,99873.25
2023-03-05T00:24:35.920Z,99842.97
2023-03-05T00:27:02.129Z,99828.88
2023-03-05T00:29:31.375Z,99815.84
2023-03-05T00:31:57.901Z,99816.63
2023-03-05T00:34:24.100Z,99864.91
2023-03-05T00:36:51.075Z,99906.84
2023-03-05T00:39:17.460Z,99917.75
2023-03-05T00:41:43.845Z,99881.94
2023-03-05T00:44:10.039Z,99871.63
2023-03-05T00:46:36.350Z,99877.97
2023-03-05T00:49:02.607Z,99883.91
2023-03-05T00:51:28.821Z,99896.97
2023-03-05T00:53:55.067Z,99914.59
2023-03-05T00:56:21.369Z,99921.09
2023-03-05T00:58:47.608Z,99960.88
2023-03-05T01:01:13.845Z,99992.53
2023-03-05T01:03:40.046Z,100007.59
2023-03-05T01:06:07.622Z,100038.66
2023-03-05T01:08:34.015Z,100049.78
2023-03-05T01:11:00.266Z,100086.38
2023-03-05T01:13:26.461Z,100103.19
2023-03-05T01:15:52.737Z,100128.91
2023-03-05T01:18:18.952Z,100140.81
2023-03-05T01:20:45.206Z,100173.06
2023-03-05T01:23:11.402Z,100200.41
2023-03-05T01:25:37.702Z,100220.78
2023-03-05T01:28:03.940Z,100201.25
2023-03-05T01:30:30.165Z,100191.16
2023-03-05T01:32:56.372Z,100198.09
2023-03-05T01:35:22.989Z,100209.75
2023-03-05T01:37:49.243Z,100209.59
2023-03-05T01:40:16.293Z,100179.28
2023-03-05T01:42:49.332Z,100191.75
2023-03-05T01:45:16.566Z,100170.97
2023-03-05T01:47:42.773Z,100178.88
2023-03-05T01:50:09.818Z,100182.25
2023-03-05T01:52:36.558Z,100179.69
2023-03-05T01:55:03.773Z,100153.75
2023-03-05T01:57:36.719Z,100173.16
2023-03-05T02:00:07.885Z,100178.47
2023-03-05T02:02:34.098Z,100182.06
2023-03-05T02:05:04.439Z,100164.22
2023-03-05T02:07:31.147Z,100188.75
2023-03-05T02:09:57.343Z,100203.63
2023-03-05T02:12:23.574Z,100206.00
2023-03-05T02:14:50.423Z,100186.22
2023-03-05T02:17:16.668Z,100191.13
2023-03-05T02:19:49.849Z,100210.16
2023-03-05T02:22:16.587Z,100227.38
2023-03-05T02:24:42.790Z,100240.44
2023-03-05T02:27:08.994Z,100237.50
2023-03-05T02:29:35.246Z,100214.31
2023-03-05T02:32:01.533Z,100222.41
2023-03-05T02:34:27.889Z,100217.47
2023-03-05T02:36:54.085Z,100218.22
2023-03-05T02:39:20.285Z,100230.88
2023-03-05T02:41:46.533Z,100235.81
2023-03-05T02:44:12.734Z,100228.47
2023-03-05T02:46:38.929Z,100226.72
2023-03-05T02:49:05.157Z,100185.16
2023-03-05T02:51:31.379Z,100200.19
2023-03-05T02:53:57.585Z,100204.16
2023-03-05T02:56:23.795Z,100204.34
2023-03-05T02:58:50.212Z,100184.34
2023-03-05T03:01:16.456Z,100182.16
2023-03-05T03:03:42.699Z,100189.06
2023-03-05T03:06:08.906Z,100180.16
2023-03-05T03:08:35.119Z,100167.09
2023-03-05T03:11:06.932Z,100154.81
2023-03-05T03:13:33.150Z,100123.59
2023-03-05T03:16:03.351Z,100087.56
2023-03-05T03:18:29.558Z,100062.59
2023-03-05T03:20:55.765Z,100029.94
2023-03-05T03:23:21.975Z,100023.22
2023-03-05T03:25:48.167Z,100014.31
2023-03-05T03:28:14.387Z,99994.31
2023-03-05T03:30:40.622Z,100001.25
2023-03-05T03:33:06.849Z,99988.78
2023-03-05T03:35:33.062Z,99986.19
2023-03-05T03:37:59.335Z,99986.81
2023-03-05T03:40:25.533Z,100009.56
2023-03-05T03:42:52.171Z,100009.56
2023-03-05T03:45:18.407Z,100005.78
2023-03-05T03:47:44.620Z,99987.78
2023-03-05T03:50:11.120Z,100004.75
2023-03-05T03:52:37.330Z,100000.06
2023-03-05T03:55:03.563Z,99995.50
2023-03-05T03:57:29.906Z,99988.38
2023-03-05T03:59:56.105Z,99984.81
2023-03-05T04:02:22.484Z,99978.25
2023-03-05T04:04:48.720Z,99980.03
2023-03-05T04:07:14.927Z,99968.59
2023-03-05T04:09:41.147Z,99966.56
2023-03-05T04:12:07.510Z,99971.72
2023-03-05T04:14:33.719Z,99961.78
2023-03-05T04:16:59.917Z,99942.00
2023-03-05T04:19:26.137Z,99989.41
2023-03-05T04:21:52.333Z,100017.47
2023-03-05T04:24:18.550Z,100022.44
2023-03-05T04:26:44.759Z,100034.25
2023-03-05T04:29:10.962Z,100047.69
2023-03-05T04:31:37.160Z,100035.69
2023-03-05T04:34:03.362Z,100050.06
2023-03-05T04:36:29.561Z,100050.25
2023-03-05T04:38:55.769Z,100047.06
2023-03-05T04:41:21.971Z,100053.19
2023-03-05T04:43:48.217Z,100071.19
2023-03-05T04:46:14.515Z,100074.75
2023-03-05T04:48:40.759Z,100068.25
2023-03-05T04:51:06.977Z,100076.56
2023-03-05T04:53:33.207Z,100042.16
2023-03-05T04:55:59.414Z,100025.34
2023-03-05T04:58:25.630Z,100029.47
2023-03-05T05:00:51.834Z,100043.72
2023-03-05T05:03:18.098Z,100038.56
2023-03-05T05:05:44.327Z,100036.19
2023-03-05T05:08:10.558Z,100034.25
2023-03-05T05:10:36.842Z,100009.31
2023-03-05T05:13:03.072Z,99979.28
2023-03-05T05:15:29.272Z,99961.13
2023-03-05T05:17:55.487Z,99936.81
2023-03-05T05:20:21.745Z,99885.81
2023-03-05T05:22:47.951Z,99854.19
2023-03-05T05:25:14.177Z,99834.59
2023-03-05T05:27:40.455Z,99830.66
2023-03-05T05:30:07.013Z,99834.22
2023-03-05T05:32:33.332Z,99841.69
2023-03-05T05:34:59.717Z,99837.13
2023-03-05T05:37:26.009Z,99840.03
2023-03-05T05:39:52.218Z,99868.25
2023-03-05T05:42:22.009Z,99895.47
2023-03-05T05:44:48.259Z,99947.47
2023-03-05T05:47:14.960Z,99958.88
2023-03-05T05:49:41.210Z,99962.44
2023-03-05T05:52:07.422Z,99957.50
2023-03-05T05:54:33.626Z,99975.09
2023-03-05T05:56:59.933Z,99971.69
2023-03-05T05:59:26.148Z,99980.38
2023-03-05T06:01:52.395Z,99973.47
2023-03-05T06:04:18.623Z,100001.50
2023-03-05T06:06:44.832Z,100021.22
2023-03-05T06:09:11.052Z,100033.75
2023-03-05T06:11:37.512Z,100046.59
2023-03-05T06:14:03.746Z,100045.19
2023-03-05T06:16:30.026Z,100055.84
2023-03-05T06:18:56.264Z,100074.22
2023-03-05T06:21:22.528Z,100083.41
2023-03-05T06:23:48.800Z,100088.56
2023-03-05T06:26:15.965Z,100098.63
2023-03-05T06:28:42.210Z,100080.66
2023-03-05T06:31:09.518Z,100080.88
2023-03-05T06:33:35.771Z,100046.31
2023-03-05T06:36:05.391Z,100039.66
2023-03-05T06:38:31.726Z,100023.56
2023-03-05T06:41:00.642Z,100009.13
2023-03-05T06:43:26.842Z,100024.13
2023-03-05T06:46:06.145Z,100035.94
2023-03-05T06:48:32.369Z,100061.97
2023-03-05T06:50:58.563Z,100098.72
2023-03-05T06:53:25.114Z,100129.94
2023-03-05T06:55:51.781Z,100150.63
2023-03-05T06:58:18.161Z,100165.78
2023-03-05T07:00:44.466Z,100145.31
2023-03-05T07:03:10.926Z,100076.88
2023-03-05T07:05:40.543Z,100016.00
2023-03-05T07:08:06.755Z,99859.06
2023-03-05T07:10:33.371Z,99716.63
2023-03-05T07:12:59.579Z,99777.84
2023-03-05T07:15:25.801Z,99675.63
2023-03-05T07:17:52.031Z,99634.59
2023-03-05T07:20:18.276Z,99692.59
2023-03-05T07:22:44.517Z,99751.53
2023-03-05T07:25:10.760Z,99784.78
2023-03-05T07:27:37.291Z,99807.13
2023-03-05T07:30:03.720Z,99833.25
2023-03-05T07:32:29.971Z,99899.94
2023-03-05T07:34:56.279Z,99916.66
2023-03-05T07:37:22.480Z,99819.84
2023-03-05T07:39:48.714Z,99705.47
2023-03-05T07:42:14.979Z,99620.09
2023-03-05T07:44:41.199Z,99681.53
2023-03-05T07:47:07.411Z,99802.34
2023-03-05T07:49:33.638Z,99917.34
2023-03-05T07:51:59.842Z,100021.28
2023-03-05T07:54:26.091Z,100099.75
2023-03-05T07:56:54.781Z,100023.91
2023-03-05T07:59:20.995Z,99958.31
2023-03-05T08:01:47.203Z,99917.16
2023-03-05T08:04:13.452Z,99917.75
2023-03-05T08:06:40.275Z,99917.56
2023-03-05T08:09:06.497Z,99966.22
2023-03-05T08:11:32.758Z,99999.09
2023-03-05T08:13:58.964Z,100019.53
2023-03-05T08:16:25.313Z,100007.22
2023-03-05T08:18:53.772Z,99895.50
2023-03-05T08:21:20.769Z,99845.38
2023-03-05T08:23:46.969Z,99756.97
2023-03-05T08:26:13.923Z,99652.47
2023-03-05T08:28:40.117Z,99625.75
2023-03-05T08:31:08.608Z,99645.63
2023-03-05T08:33:35.454Z,99692.75
2023-03-05T08:36:01.707Z,99690.63
2023-03-05T08:38:27.921Z,99650.50
2023-03-05T08:40:54.132Z,99629.72
2023-03-05T08:43:20.323Z,99669.91
2023-03-05T08:45:46.541Z,99691.31
2023-03-05T08:48:12.841Z,99717.63
2023-03-05T08:50:39.116Z,99715.66
2023-03-05T08:53:05.310Z,99738.44
2023-03-05T08:55:31.531Z,99694.28
2023-03-05T08:57:57.743Z,99685.38
2023-03-05T09:00:24.064Z,99632.75
2023-03-05T09:02:50.324Z,99557.41
2023-03-05T09:05:16.540Z,99491.84
2023-03-05T09:07:42.794Z,99447.88
2023-03-05T09:10:09.347Z,99357.78
2023-03-05T09:12:35.548Z,99335.53
2023-03-05T09:15:01.778Z,99156.94
2023-03-05T09:17:27.980Z,99029.75
2023-03-05T09:19:54.192Z,98956.84
2023-03-05T09:22:20.385Z,98927.66
2023-03-05T09:24:46.582Z,98924.31
2023-03-05T09:27:12.802Z,98853.34
2023-03-05T09:29:40.372Z,98865.66
2023-03-05T09:32:07.692Z,98723.34
2023-03-05T09:34:33.936Z,98467.78
2023-03-05T09:37:00.188Z,98457.00
2023-03-05T09:39:26.404Z,98474.78
2023-03-05T09:42:12.860Z,98340.44
2023-03-05T09:45:02.264Z,98387.75
2023-03-05T09:47:48.703Z,98274.22
2023-03-05T09:50:22.725Z,98254.72
2023-03-05T09:52:54.038Z,98009.72
2023-03-05T09:55:22.743Z,97922.53
2023-03-05T09:57:49.878Z,98014.81
2023-03-05T10:00:36.100Z,98136.53
2023-03-05T10:03:04.339Z,98142.69
2023-03-05T10:05:43.283Z,98117.22
2023-03-05T10:08:09.496Z,98175.47
2023-03-05T10:10:43.218Z,98195.75
2023-03-05T10:13:24.599Z,98144.19
2023-03-05T10:16:10.678Z,98039.41
2023-03-05T10:18:46.660Z,97950.34
2023-03-05T10:21:18.162Z,98021.03
2023-03-05T10:24:03.165Z,97908.28
2023-03-05T10:26:32.079Z,97830.06
2023-03-05T10:29:16.490Z,98033.25
2023-03-05T10:31:42.747Z,98128.47
2023-03-05T10:34:12.011Z,98432.47
2023-03-05T10:36:44.036Z,98301.97
2023-03-05T10:39:16.253Z,98120.75
2023-03-05T10:41:44.913Z,98209.94
2023-03-05T10:44:12.453Z,98110.94
2023-03-05T10:46:38.672Z,98009.91
2023-03-05T10:49:21.140Z,98028.47
2023-03-05T10:51:48.480Z,98061.22
2023-03-05T10:54:24.691Z,98163.78
2023-03-05T10:56:51.154Z,98015.41
2023-03-05T10:59:17.376Z,97916.38
2023-03-05T11:01:43.655Z,97994.25
2023-03-05T11:04:25.307Z,97929.28
2023-03-05T11:06:51.528Z,98150.09
2023-03-05T11:09:17.691Z,98071.66
2023-03-05T11:11:44.603Z,98009.22
2023-03-05T11:14:24.115Z,97953.69
2023-03-05T11:16:50.360Z,98114.44
2023-03-05T11:19:17.731Z,98056.63
2023-03-05T11:21:44.344Z,98052.47
2023-03-05T11:24:12.027Z,98153.19
2023-03-05T11:26:38.234Z,98320.88
2023-03-05T11:29:08.867Z,98150.06
2023-03-05T11:31:35.066Z,98158.88
2023-03-05T11:34:01.213Z,98164.59
2023-03-05T11:36:28.682Z,98224.91
2023-03-05T11:38:54.840Z,98233.09
2023-03-05T11:41:23.201Z,98317.94
2023-03-05T11:43:49.545Z,98423.34
2023-03-05T11:46:15.786Z,98452.31
2023-03-05T11:48:42.014Z,98568.63
2023-03-05T11:51:10.884Z,98532.84
2023-03-05T11:53:37.151Z,98378.78
2023-03-05T11:56:15.815Z,98373.06
2023-03-05T11:58:48.273Z,98533.56
2023-03-05T12:01:15.440Z,98459.34
2023-03-05T12:03:41.712Z,98445.13
2023-03-05T12:06:15.922Z,98325.50
2023-03-05T12:08:43.017Z,98388.38
2023-03-05T12:11:16.930Z,98239.56
2023-03-05T12:13:44.109Z,98165.09
2023-03-05T12:16:27.902Z,98199.69
2023-03-05T12:19:12.976Z,98070.78
2023-03-05T12:21:39.631Z,97962.00
2023-03-05T12:24:32.147Z,98209.00
2023-03-05T12:27:01.107Z,98218.41
2023-03-05T12:29:33.250Z,98156.97
2023-03-05T12:31:59.816Z,98267.38
2023-03-05T12:34:41.771Z,98191.47
2023-03-05T12:37:34.104Z,98172.53
2023-03-05T12:40:23.322Z,98232.72
2023-03-05T12:42:56.198Z,98190.38
2023-03-05T12:45:23.229Z,98137.72
2023-03-05T12:47:55.302Z,98246.47
2023-03-05T12:50:27.728Z,98209.97
2023-03-05T12:53:11.916Z,98183.72
2023-03-05T12:55:38.094Z,98138.63
2023-03-05T12:58:11.935Z,98305.16
2023-03-05T13:00:56.921Z,98367.81
2023-03-05T13:03:30.744Z,98295.03
2023-03-05T13:05:57.356Z,98334.22
2023-03-05T13:08:27.555Z,98333.78
2023-03-05T13:10:54.127Z,98422.44
2023-03-05T13:13:21.483Z,98439.25
2023-03-05T13:15:48.057Z,98485.94
2023-03-05T13:18:27.357Z,98419.22
2023-03-05T13:21:13.056Z,98568.97
2023-03-05T13:23:39.266Z,98510.66
2023-03-05T13:26:08.485Z,98488.09
2023-03-05T13:28:34.899Z,98520.63
2023-03-05T13:31:01.679Z,98559.69
2023-03-05T13:33:34.943Z,98562.09
2023-03-05T13:36:01.231Z,98452.97
2023-03-05T13:38:38.927Z,98404.13
2023-03-05T13:41:06.474Z,98568.91
2023-03-05T13:43:32.693Z,98626.44
2023-03-05T13:45:58.991Z,98549.63
2023-03-05T13:48:26.109Z,98468.13
2023-03-05T13:50:56.111Z,98471.63
2023-03-05T13:53:23.154Z,98498.16
2023-03-05T13:55:50.415Z,98503.84
2023-03-05T13:58:35.396Z,98531.41
2023-03-05T14:01:20.178Z,98615.25
2023-03-05T14:03:48.878Z,98546.44
2023-03-05T14:06:15.625Z,98643.75
2023-03-05T14:08:41.831Z,98648.53
2023-03-05T14:11:12.497Z,98674.72
2023-03-05T14:13:38.696Z,98660.88
2023-03-05T14:16:04.934Z,98554.13
2023-03-05T14:18:31.144Z,98667.91
2023-03-05T14:20:59.577Z,98728.59
2023-03-05T14:23:38.188Z,98770.53
2023-03-05T14:26:11.081Z,98705.63
2023-03-05T14:28:37.305Z,98612.81
2023-03-05T14:31:03.573Z,98495.66
2023-03-05T14:33:30.119Z,98461.84
2023-03-05T14:35:56.513Z,98508.78
2023-03-05T14:38:30.049Z,98654.88
2023-03-05T14:40:56.259Z,98703.75
2023-03-05T14:43:22.506Z,98700.69
2023-03-05T14:45:48.745Z,98794.09
2023-03-05T14:48:16.232Z,98782.34
2023-03-05T14:50:46.261Z,98801.66
2023-03-05T14:53:16.404Z,98881.75
2023-03-05T14:55:42.621Z,98862.41
2023-03-05T14:58:15.927Z,98845.50
2023-03-05T15:00:42.287Z,98812.84
2023-03-05T15:03:12.234Z,98777.81
2023-03-05T15:05:38.481Z,98903.09
2023-03-05T15:08:04.764Z,98930.75
2023-03-05T15:10:30.990Z,98957.72
2023-03-05T15:12:57.212Z,99002.06
2023-03-05T15:15:23.433Z,99058.53
2023-03-05T15:17:50.366Z,99097.16
2023-03-05T15:20:17.766Z,99096.16
2023-03-05T15:22:44.112Z,99192.91
2023-03-05T15:25:10.481Z,99213.19
2023-03-05T15:27:36.777Z,99143.94
2023-03-05T15:30:03.489Z,99156.28
2023-03-05T15:32:29.755Z,99195.59
2023-03-05T15:34:56.144Z,99191.31
2023-03-05T15:37:22.537Z,99231.41
2023-03-05T15:39:48.746Z,99249.44
2023-03-05T15:42:14.956Z,99215.19
2023-03-05T15:44:41.187Z,99208.53
2023-03-05T15:47:07.416Z,99156.34
2023-03-05T15:55:30.022Z,99258.09
2023-03-05T15:57:56.393Z,99273.56
2023-03-05T16:00:28.022Z,99322.47
2023-03-05T16:02:54.273Z,99305.47
2023-03-05T16:05:20.493Z,99291.22
2023-03-05T16:07:46.709Z,99352.84
2023-03-05T16:10:13.464Z,99410.72
2023-03-05T16:12:40.129Z,99414.50
2023-03-05T16:15:09.281Z,99452.13
2023-03-05T16:17:36.292Z,99445.75
2023-03-05T16:20:12.579Z,99451.88
2023-03-05T16:22:39.120Z,99431.69
2023-03-05T16:25:11.025Z,99396.69
2023-03-05T16:27:39.127Z,99377.38
2023-03-05T16:30:05.680Z,99450.34
2023-03-05T16:32:34.299Z,99481.91
2023-03-05T16:35:00.526Z,99479.34
2023-03-05T16:37:26.743Z,99505.81
2023-03-05T16:39:52.983Z,99522.84
2023-03-05T16:42:19.194Z,99628.09
2023-03-05T16:44:45.401Z,99634.44
2023-03-05T16:47:11.606Z,99606.97
2023-03-05T16:49:38.244Z,99622.78
2023-03-05T16:52:16.526Z,99665.50
2023-03-05T16:54:44.796Z,99776.66
2023-03-05T16:57:11.026Z,99822.16
2023-03-05T16:59:37.354Z,99831.06
2023-03-05T17:02:03.714Z,99824.72
2023-03-05T17:04:29.918Z,99878.94
2023-03-05T17:06:56.124Z,99917.72
2023-03-05T17:09:22.449Z,99960.25
2023-03-05T17:11:48.641Z,99975.66
2023-03-05T17:14:14.844Z,100039.00
2023-03-05T17:16:41.079Z,99990.25
2023-03-05T17:19:07.293Z,100024.13
2023-03-05T17:21:33.499Z,100010.66
2023-03-05T17:23:59.726Z,99999.75
2023-03-05T17:26:25.951Z,99973.03
2023-03-05T17:28:54.381Z,100013.19
2023-03-05T17:43:30.912Z,100004.84
2023-03-05T17:54:48.872Z,100029.31
2023-03-05T17:57:15.067Z,99998.44
2023-03-05T17:59:42.557Z,99995.88
2023-03-05T18:02:09.411Z,99961.00
2023-03-05T18:04:35.714Z,100009.53
2023-03-05T18:07:01.945Z,99956.06
2023-03-05T18:09:28.152Z,99994.22
2023-03-05T18:11:54.367Z,100020.38
2023-03-05T18:14:20.588Z,99979.56
2023-03-05T18:16:46.835Z,99997.75
2023-03-05T18:19:13.049Z,99998.09
2023-03-05T18:21:39.509Z,100002.28
2023-03-05T18:24:05.901Z,100016.75
2023-03-05T18:26:32.151Z,100016.97
2023-03-05T18:28:58.362Z,100008.53
2023-03-05T18:31:24.564Z,99999.44
2023-03-05T18:33:50.759Z,99960.91
2023-03-05T18:36:17.356Z,99941.13
2023-03-05T18:38:43.568Z,99943.69
2023-03-05T18:44:23.911Z,99934.00
2023-03-05T18:56:11.028Z,99969.97
2023-03-05T19:14:08.312Z,100010.31
2023-03-05T19:16:34.531Z,99999.63
2023-03-05T19:19:04.100Z,99996.28
2023-03-05T19:21:30.552Z,99999.44
2023-03-05T19:23:56.775Z,99992.13
2023-03-05T19:26:22.993Z,99983.03
2023-03-05T19:28:49.190Z,99975.69
2023-03-05T19:31:15.443Z,99967.19
2023-03-05T19:33:41.677Z,99952.13
2023-03-05T19:36:08.973Z,99949.19
2023-03-05T19:38:35.180Z,99940.88
2023-03-05T19:41:01.412Z,99935.91
2023-03-05T19:43:27.628Z,99939.72
2023-03-05T19:45:59.660Z,99909.63
2023-03-05T19:48:25.874Z,99904.50
2023-03-05T19:50:52.085Z,99901.72
2023-03-05T19:53:18.278Z,99890.66
2023-03-05T19:55:44.485Z,99900.97
2023-03-05T20:07:14.753Z,99887.53
2023-03-05T20:09:40.975Z,99860.06
2023-03-05T20:12:07.724Z,99867.53
2023-03-05T20:14:33.962Z,99854.28
2023-03-05T20:17:00.172Z,99825.22
2023-03-05T20:19:26.375Z,99819.09
2023-03-05T20:21:52.583Z,99842.63
2023-03-05T20:24:18.816Z,99840.25
2023-03-05T20:26:45.477Z,99838.88
2023-03-05T20:29:11.759Z,99832.53
2023-03-05T20:31:38.195Z,99826.75
2023-03-05T20:34:05.073Z,99844.34
2023-03-05T20:36:31.272Z,99845.94
2023-03-05T20:38:57.480Z,99847.34
2023-03-05T20:41:23.711Z,99823.00
2023-03-05T20:43:50.160Z,99824.59
2023-03-05T20:46:17.331Z,99828.16
2023-03-05T20:48:43.573Z,99840.44
2023-03-05T20:51:10.426Z,99828.94
2023-03-05T20:53:36.636Z,99819.66
2023-03-05T20:56:02.844Z,99822.44
2023-03-05T20:58:29.053Z,99818.72
2023-03-05T21:00:55.326Z,99816.13
2023-03-05T21:03:22.174Z,99789.63
2023-03-05T21:05:49.869Z,99793.16
2023-03-05T21:08:16.061Z,99798.50
2023-03-05T21:10:42.260Z,99816.88
2023-03-05T21:13:08.461Z,99829.72
2023-03-05T21:15:34.706Z,99835.06
2023-03-05T21:18:00.906Z,99830.91
2023-03-05T21:20:27.847Z,99843.94
2023-03-05T21:22:54.492Z,99865.88
2023-03-05T21:25:21.448Z,99869.22
2023-03-05T21:27:54.755Z,99893.53
2023-03-05T21:30:21.006Z,99903.06
2023-03-05T21:32:47.239Z,99897.75
2023-03-05T21:35:20.218Z,99894.00
2023-03-05T21:37:46.456Z,99879.34
2023-03-05T21:40:13.052Z,99870.63
2023-03-05T21:42:39.408Z,99854.25
2023-03-05T21:45:06.190Z,99835.66
2023-03-05T21:47:32.392Z,99831.91
2023-03-05T21:49:58.585Z,99841.78
2023-03-05T21:52:24.800Z,99824.97
2023-03-05T21:54:52.654Z,99825.78
2023-03-05T21:57:18.866Z,99811.94
2023-03-05T21:59:45.070Z,99806.59
2023-03-05T22:02:11.759Z,99816.69
2023-03-05T22:04:37.957Z,99813.72
2023-03-05T22:07:06.419Z,99815.91
2023-03-05T22:09:32.742Z,99807.19
2023-03-05T22:11:58.956Z,99816.09
2023-03-05T22:14:25.200Z,99812.53
2023-03-05T22:16:51.421Z,99802.06
2023-03-05T22:19:17.637Z,99799.88
2023-03-05T22:21:43.852Z,99794.34
2023-03-05T22:24:10.046Z,99782.50
2023-03-05T22:26:37.088Z,99777.16
2023-03-05T22:29:03.511Z,99767.53
2023-03-05T22:31:29.718Z,99753.88
2023-03-05T22:33:55.933Z,99732.31
2023-03-05T22:36:22.129Z,99720.47
2023-03-05T22:38:48.356Z,99711.56
2023-03-05T22:41:15.492Z,99705.63
2023-03-05T22:43:41.733Z,99692.41
2023-03-05T22:46:08.918Z,99676.00
2023-03-05T22:48:35.150Z,99660.41
2023-03-05T22:51:01.355Z,99647.34
2023-03-05T22:53:27.586Z,99631.75
2023-03-05T22:55:53.783Z,99620.69
2023-03-05T22:58:19.992Z,99597.75
2023-03-05T23:00:46.191Z,99580.00
2023-03-05T23:03:12.474Z,99557.06
2023-03-05T23:05:38.763Z,99539.09
2023-03-05T23:08:05.000Z,99525.06
2023-03-05T23:10:31.236Z,99501.53
2023-03-05T23:12:58.047Z,99486.53
2023-03-05T23:15:24.218Z,99467.19
2023-03-05T23:17:50.437Z,99443.88
2023-03-05T23:20:18.112Z,99415.84
2023-03-05T23:22:44.478Z,99402.22
2023-03-05T23:25:11.082Z,99381.66
2023-03-05T23:27:37.291Z,99363.88
2023-03-05T23:30:03.436Z,99348.69
2023-03-05T23:32:29.695Z,99326.38
2023-03-05T23:34:55.922Z,99311.75
2023-03-05T23:37:22.143Z,99292.22
2023-03-05T23:39:48.367Z,99274.22
2023-03-05T23:42:14.564Z,99264.75
2023-03-05T23:44:40.763Z,99247.78
2023-03-05T23:47:07.003Z,99231.38
2023-03-05T23:49:33.211Z,99216.75
2023-03-05T23:51:59.429Z,99203.50
2023-03-05T23:54:25.635Z,99199.94
2023-03-05T23:56:51.840Z,99184.75
2023-03-05T23:59:18.094Z,99182.38
